sensor_id;sensor_type;location;lat;lon;timestamp;temperature;humidity
4411;DHT22;2218;51.408;7.208;2023-07-29T00:01:40;21.90;62.70
4411;DHT22;2218;51.408;7.208;2023-07-29T00:04:07;21.90;62.70
4411;DHT22;2218;51.408;7.208;2023-07-29T00:06:35;21.90;62.70
4411;DHT22;2218;51.408;7.208;2023-07-29T00:09:02;21.90;62.70
4411;DHT22;2218;51.408;7.208;2023-07-29T00:11:29;21.90;62.70
4411;DHT22;2218;51.408;7.208;2023-07-29T00:13:59;21.90;62.70
4411;DHT22;2218;51.408;7.208;2023-07-29T00:16:27;21.90;62.70
4411;DHT22;2218;51.408;7.208;2023-07-29T00:18:54;21.90;62.70
4411;DHT22;2218;51.408;7.208;2023-07-29T00:21:21;21.90;62.70
4411;DHT22;2218;51.408;7.208;2023-07-29T00:23:48;21.90;62.70
4411;DHT22;2218;51.408;7.208;2023-07-29T00:26:15;21.90;62.70
4411;DHT22;2218;51.408;7.208;2023-07-29T00:28:42;21.90;62.70
4411;DHT22;2218;51.408;7.208;2023-07-29T00:31:09;21.90;62.70
4411;DHT22;2218;51.408;7.208;2023-07-29T00:33:37;21.90;62.60
4411;DHT22;2218;51.408;7.208;2023-07-29T00:36:04;21.90;62.70
4411;DHT22;2218;51.408;7.208;2023-07-29T00:38:31;21.90;62.70
4411;DHT22;2218;51.408;7.208;2023-07-29T00:40:58;21.90;62.70
4411;DHT22;2218;51.408;7.208;2023-07-29T00:43:27;21.80;62.60
4411;DHT22;2218;51.408;7.208;2023-07-29T00:45:54;21.90;62.70
4411;DHT22;2218;51.408;7.208;2023-07-29T00:48:23;21.90;62.70
4411;DHT22;2218;51.408;7.208;2023-07-29T00:50:52;21.80;62.60
4411;DHT22;2218;51.408;7.208;2023-07-29T00:53:19;21.90;62.70
4411;DHT22;2218;51.408;7.208;2023-07-29T00:55:49;21.90;62.80
4411;DHT22;2218;51.408;7.208;2023-07-29T00:58:16;21.90;62.70
4411;DHT22;2218;51.408;7.208;2023-07-29T01:00:43;21.80;62.60
4411;DHT22;2218;51.408;7.208;2023-07-29T01:03:10;21.80;62.60
4411;DHT22;2218;51.408;7.208;2023-07-29T01:05:43;21.80;62.70
4411;DHT22;2218;51.408;7.208;2023-07-29T01:08:24;21.80;62.60
4411;DHT22;2218;51.408;7.208;2023-07-29T01:11:03;21.90;62.70
4411;DHT22;2218;51.408;7.208;2023-07-29T01:13:44;21.80;62.70
4411;DHT22;2218;51.408;7.208;2023-07-29T01:16:22;21.80;62.60
4411;DHT22;2218;51.408;7.208;2023-07-29T01:18:54;21.80;62.60
4411;DHT22;2218;51.408;7.208;2023-07-29T01:21:22;21.80;62.60
4411;DHT22;2218;51.408;7.208;2023-07-29T01:23:58;21.90;62.60
4411;DHT22;2218;51.408;7.208;2023-07-29T01:26:25;21.80;62.50
4411;DHT22;2218;51.408;7.208;2023-07-29T01:28:55;21.80;62.50
4411;DHT22;2218;51.408;7.208;2023-07-29T01:31:30;21.80;62.50
4411;DHT22;2218;51.408;7.208;2023-07-29T01:34:13;21.90;62.60
4411;DHT22;2218;51.408;7.208;2023-07-29T01:36:45;21.80;62.50
4411;DHT22;2218;51.408;7.208;2023-07-29T01:39:17;21.80;62.50
4411;DHT22;2218;51.408;7.208;2023-07-29T01:41:46;21.80;62.50
4411;DHT22;2218;51.408;7.208;2023-07-29T01:44:14;21.90;62.60
4411;DHT22;2218;51.408;7.208;2023-07-29T01:46:44;21.80;62.50
4411;DHT22;2218;51.408;7.208;2023-07-29T01:49:11;21.90;62.70
4411;DHT22;2218;51.408;7.208;2023-07-29T01:51:38;21.80;62.50
4411;DHT22;2218;51.408;7.208;2023-07-29T01:54:05;21.80;62.60
4411;DHT22;2218;51.408;7.208;2023-07-29T01:56:33;21.80;62.50
4411;DHT22;2218;51.408;7.208;2023-07-29T01:59:00;21.80;62.50
4411;DHT22;2218;51.408;7.208;2023-07-29T02:01:28;21.80;62.50
4411;DHT22;2218;51.408;7.208;2023-07-29T02:03:56;21.80;62.50
4411;DHT22;2218;51.408;7.208;2023-07-29T02:06:23;21.80;62.50
4411;DHT22;2218;51.408;7.208;2023-07-29T02:08:52;21.80;62.50
4411;DHT22;2218;51.408;7.208;2023-07-29T02:11:19;21.80;62.50
4411;DHT22;2218;51.408;7.208;2023-07-29T02:13:54;21.80;62.50
4411;DHT22;2218;51.408;7.208;2023-07-29T02:16:21;21.80;62.50
4411;DHT22;2218;51.408;7.208;2023-07-29T02:18:49;21.80;62.50
4411;DHT22;2218;51.408;7.208;2023-07-29T02:21:16;21.80;62.50
4411;DHT22;2218;51.408;7.208;2023-07-29T02:23:43;21.80;62.50
4411;DHT22;2218;51.408;7.208;2023-07-29T02:26:10;21.80;62.50
4411;DHT22;2218;51.408;7.208;2023-07-29T02:28:37;21.80;62.50
4411;DHT22;2218;51.408;7.208;2023-07-29T02:31:14;21.80;62.50
4411;DHT22;2218;51.408;7.208;2023-07-29T02:33:44;21.80;62.50
4411;DHT22;2218;51.408;7.208;2023-07-29T02:36:12;21.80;62.50
4411;DHT22;2218;51.408;7.208;2023-07-29T02:38:40;21.80;62.50
4411;DHT22;2218;51.408;7.208;2023-07-29T02:41:09;21.80;62.50
4411;DHT22;2218;51.408;7.208;2023-07-29T02:43:37;21.80;62.50
4411;DHT22;2218;51.408;7.208;2023-07-29T02:46:06;21.80;62.50
4411;DHT22;2218;51.408;7.208;2023-07-29T02:48:34;21.80;62.40
4411;DHT22;2218;51.408;7.208;2023-07-29T02:51:02;21.80;62.50
4411;DHT22;2218;51.408;7.208;2023-07-29T02:53:28;21.80;62.40
4411;DHT22;2218;51.408;7.208;2023-07-29T02:55:55;21.80;62.40
4411;DHT22;2218;51.408;7.208;2023-07-29T02:58:22;21.80;62.50
4411;DHT22;2218;51.408;7.208;2023-07-29T03:00:49;21.80;62.50
4411;DHT22;2218;51.408;7.208;2023-07-29T03:03:17;21.80;62.40
4411;DHT22;2218;51.408;7.208;2023-07-29T03:05:46;21.80;62.40
4411;DHT22;2218;51.408;7.208;2023-07-29T03:08:13;21.80;62.40
4411;DHT22;2218;51.408;7.208;2023-07-29T03:10:40;21.80;62.40
4411;DHT22;2218;51.408;7.208;2023-07-29T03:13:07;21.80;62.40
4411;DHT22;2218;51.408;7.208;2023-07-29T03:15:34;21.80;62.50
4411;DHT22;2218;51.408;7.208;2023-07-29T03:18:01;21.80;62.40
4411;DHT22;2218;51.408;7.208;2023-07-29T03:20:28;21.80;62.40
4411;DHT22;2218;51.408;7.208;2023-07-29T03:22:56;21.80;62.40
4411;DHT22;2218;51.408;7.208;2023-07-29T03:25:23;21.80;62.40
4411;DHT22;2218;51.408;7.208;2023-07-29T03:27:51;21.80;62.40
4411;DHT22;2218;51.408;7.208;2023-07-29T03:30:19;21.80;62.40
4411;DHT22;2218;51.408;7.208;2023-07-29T03:32:48;21.80;62.40
4411;DHT22;2218;51.408;7.208;2023-07-29T03:35:16;21.80;62.40
4411;DHT22;2218;51.408;7.208;2023-07-29T03:37:43;21.80;62.40
4411;DHT22;2218;51.408;7.208;2023-07-29T03:40:11;21.80;62.50
4411;DHT22;2218;51.408;7.208;2023-07-29T03:42:38;21.80;62.40
4411;DHT22;2218;51.408;7.208;2023-07-29T03:45:06;21.80;62.40
4411;DHT22;2218;51.408;7.208;2023-07-29T03:47:33;21.80;62.40
4411;DHT22;2218;51.408;7.208;2023-07-29T03:50:01;21.80;62.40
4411;DHT22;2218;51.408;7.208;2023-07-29T03:52:29;21.80;62.40
4411;DHT22;2218;51.408;7.208;2023-07-29T03:54:55;21.80;62.40
4411;DHT22;2218;51.408;7.208;2023-07-29T03:57:24;21.80;62.40
4411;DHT22;2218;51.408;7.208;2023-07-29T03:59:51;21.80;62.40
4411;DHT22;2218;51.408;7.208;2023-07-29T04:02:17;21.80;62.40
4411;DHT22;2218;51.408;7.208;2023-07-29T04:04:45;21.80;62.40
4411;DHT22;2218;51.408;7.208;2023-07-29T04:07:13;21.80;62.40
4411;DHT22;2218;51.408;7.208;2023-07-29T04:09:40;21.80;62.40
4411;DHT22;2218;51.408;7.208;2023-07-29T04:12:08;21.80;62.40
4411;DHT22;2218;51.408;7.208;2023-07-29T04:14:37;21.80;62.40
4411;DHT22;2218;51.408;7.208;2023-07-29T04:17:04;21.80;62.40
4411;DHT22;2218;51.408;7.208;2023-07-29T04:19:31;21.80;62.40
4411;DHT22;2218;51.408;7.208;2023-07-29T04:21:59;21.80;62.30
4411;DHT22;2218;51.408;7.208;2023-07-29T04:24:26;21.80;62.40
4411;DHT22;2218;51.408;7.208;2023-07-29T04:26:53;21.80;62.40
4411;DHT22;2218;51.408;7.208;2023-07-29T04:29:20;21.80;62.40
4411;DHT22;2218;51.408;7.208;2023-07-29T04:31:49;21.80;62.40
4411;DHT22;2218;51.408;7.208;2023-07-29T04:34:17;21.80;62.40
4411;DHT22;2218;51.408;7.208;2023-07-29T04:36:45;21.80;62.40
4411;DHT22;2218;51.408;7.208;2023-07-29T04:39:12;21.80;62.40
4411;DHT22;2218;51.408;7.208;2023-07-29T04:41:39;21.80;62.30
4411;DHT22;2218;51.408;7.208;2023-07-29T04:44:06;21.80;62.30
4411;DHT22;2218;51.408;7.208;2023-07-29T04:46:33;21.80;62.40
4411;DHT22;2218;51.408;7.208;2023-07-29T04:49:02;21.80;62.30
4411;DHT22;2218;51.408;7.208;2023-07-29T04:51:29;21.80;62.30
4411;DHT22;2218;51.408;7.208;2023-07-29T04:53:57;21.80;62.40
4411;DHT22;2218;51.408;7.208;2023-07-29T04:56:24;21.80;62.30
4411;DHT22;2218;51.408;7.208;2023-07-29T04:58:51;21.80;62.30
4411;DHT22;2218;51.408;7.208;2023-07-29T05:01:19;21.80;62.30
4411;DHT22;2218;51.408;7.208;2023-07-29T05:03:47;21.80;63.10
4411;DHT22;2218;51.408;7.208;2023-07-29T05:06:15;21.80;62.40
4411;DHT22;2218;51.408;7.208;2023-07-29T05:08:42;21.80;62.40
4411;DHT22;2218;51.408;7.208;2023-07-29T05:11:09;21.80;62.30
4411;DHT22;2218;51.408;7.208;2023-07-29T05:13:36;21.80;62.40
4411;DHT22;2218;51.408;7.208;2023-07-29T05:16:04;21.80;62.40
4411;DHT22;2218;51.408;7.208;2023-07-29T05:18:32;21.80;62.40
4411;DHT22;2218;51.408;7.208;2023-07-29T05:20:59;21.80;62.30
4411;DHT22;2218;51.408;7.208;2023-07-29T05:23:28;21.80;62.30
4411;DHT22;2218;51.408;7.208;2023-07-29T05:25:55;21.70;62.30
4411;DHT22;2218;51.408;7.208;2023-07-29T05:28:22;21.80;62.30
4411;DHT22;2218;51.408;7.208;2023-07-29T05:30:49;21.70;62.20
4411;DHT22;2218;51.408;7.208;2023-07-29T05:33:16;21.70;62.20
4411;DHT22;2218;51.408;7.208;2023-07-29T05:35:42;21.70;62.20
4411;DHT22;2218;51.408;7.208;2023-07-29T05:38:10;21.70;62.30
4411;DHT22;2218;51.408;7.208;2023-07-29T05:40:39;21.80;62.40
4411;DHT22;2218;51.408;7.208;2023-07-29T05:43:07;21.80;62.40
4411;DHT22;2218;51.408;7.208;2023-07-29T05:45:33;21.80;62.40
4411;DHT22;2218;51.408;7.208;2023-07-29T05:48:00;21.80;62.40
4411;DHT22;2218;51.408;7.208;2023-07-29T05:50:27;21.80;62.40
4411;DHT22;2218;51.408;7.208;2023-07-29T05:52:54;21.80;62.40
4411;DHT22;2218;51.408;7.208;2023-07-29T05:55:21;21.80;62.40
4411;DHT22;2218;51.408;7.208;2023-07-29T05:57:50;21.80;62.30
4411;DHT22;2218;51.408;7.208;2023-07-29T06:00:17;21.80;62.30
4411;DHT22;2218;51.408;7.208;2023-07-29T06:02:44;21.80;62.40
4411;DHT22;2218;51.408;7.208;2023-07-29T06:05:15;21.80;62.40
4411;DHT22;2218;51.408;7.208;2023-07-29T06:07:42;21.80;62.40
4411;DHT22;2218;51.408;7.208;2023-07-29T06:10:12;21.80;62.40
4411;DHT22;2218;51.408;7.208;2023-07-29T06:12:39;21.80;62.40
4411;DHT22;2218;51.408;7.208;2023-07-29T06:15:09;21.80;62.40
4411;DHT22;2218;51.408;7.208;2023-07-29T06:17:37;21.80;62.40
4411;DHT22;2218;51.408;7.208;2023-07-29T06:20:05;21.80;62.30
4411;DHT22;2218;51.408;7.208;2023-07-29T06:22:33;21.80;62.30
4411;DHT22;2218;51.408;7.208;2023-07-29T06:25:00;21.80;62.40
4411;DHT22;2218;51.408;7.208;2023-07-29T06:27:27;21.80;62.30
4411;DHT22;2218;51.408;7.208;2023-07-29T06:29:53;21.80;62.30
4411;DHT22;2218;51.408;7.208;2023-07-29T06:32:22;21.80;62.30
4411;DHT22;2218;51.408;7.208;2023-07-29T06:34:49;21.80;62.40
4411;DHT22;2218;51.408;7.208;2023-07-29T06:37:17;21.80;62.40
4411;DHT22;2218;51.408;7.208;2023-07-29T06:39:44;21.80;62.30
4411;DHT22;2218;51.408;7.208;2023-07-29T06:42:11;21.80;62.30
4411;DHT22;2218;51.408;7.208;2023-07-29T06:44:39;21.80;62.30
4411;DHT22;2218;51.408;7.208;2023-07-29T06:47:06;21.80;62.30
4411;DHT22;2218;51.408;7.208;2023-07-29T06:49:34;21.80;62.30
4411;DHT22;2218;51.408;7.208;2023-07-29T06:52:01;21.80;62.30
4411;DHT22;2218;51.408;7.208;2023-07-29T06:54:28;21.80;62.30
4411;DHT22;2218;51.408;7.208;2023-07-29T06:56:55;21.80;62.30
4411;DHT22;2218;51.408;7.208;2023-07-29T06:59:22;21.80;62.30
4411;DHT22;2218;51.408;7.208;2023-07-29T07:01:50;21.80;62.40
4411;DHT22;2218;51.408;7.208;2023-07-29T07:04:17;21.80;62.30
4411;DHT22;2218;51.408;7.208;2023-07-29T07:06:45;21.80;62.30
4411;DHT22;2218;51.408;7.208;2023-07-29T07:09:12;21.80;62.30
4411;DHT22;2218;51.408;7.208;2023-07-29T07:11:39;21.80;62.30
4411;DHT22;2218;51.408;7.208;2023-07-29T07:14:06;21.80;62.30
4411;DHT22;2218;51.408;7.208;2023-07-29T07:16:33;21.80;62.30
4411;DHT22;2218;51.408;7.208;2023-07-29T07:19:02;21.80;62.30
4411;DHT22;2218;51.408;7.208;2023-07-29T07:21:29;21.80;62.30
4411;DHT22;2218;51.408;7.208;2023-07-29T07:23:57;21.80;62.30
4411;DHT22;2218;51.408;7.208;2023-07-29T07:26:24;21.80;62.30
4411;DHT22;2218;51.408;7.208;2023-07-29T07:28:51;21.80;62.30
4411;DHT22;2218;51.408;7.208;2023-07-29T07:31:18;21.80;62.30
4411;DHT22;2218;51.408;7.208;2023-07-29T07:33:44;21.80;62.20
4411;DHT22;2218;51.408;7.208;2023-07-29T07:36:11;21.80;62.30
4411;DHT22;2218;51.408;7.208;2023-07-29T07:38:38;21.80;62.20
4411;DHT22;2218;51.408;7.208;2023-07-29T07:41:06;21.80;62.30
4411;DHT22;2218;51.408;7.208;2023-07-29T07:43:33;21.80;62.20
4411;DHT22;2218;51.408;7.208;2023-07-29T07:46:01;21.80;62.20
4411;DHT22;2218;51.408;7.208;2023-07-29T07:48:30;21.80;62.70
4411;DHT22;2218;51.408;7.208;2023-07-29T07:50:58;21.90;62.00
4411;DHT22;2218;51.408;7.208;2023-07-29T07:53:25;21.80;61.90
4411;DHT22;2218;51.408;7.208;2023-07-29T07:55:52;21.90;61.90
4411;DHT22;2218;51.408;7.208;2023-07-29T07:58:20;21.90;61.90
4411;DHT22;2218;51.408;7.208;2023-07-29T08:00:47;21.90;61.80
4411;DHT22;2218;51.408;7.208;2023-07-29T08:03:14;21.90;61.80
4411;DHT22;2218;51.408;7.208;2023-07-29T08:05:41;21.90;61.70
4411;DHT22;2218;51.408;7.208;2023-07-29T08:08:08;21.90;61.70
4411;DHT22;2218;51.408;7.208;2023-07-29T08:10:35;21.90;61.60
4411;DHT22;2218;51.408;7.208;2023-07-29T08:13:02;21.90;61.60
4411;DHT22;2218;51.408;7.208;2023-07-29T08:15:30;21.90;61.60
4411;DHT22;2218;51.408;7.208;2023-07-29T08:17:57;21.90;61.60
4411;DHT22;2218;51.408;7.208;2023-07-29T08:20:23;21.90;61.50
4411;DHT22;2218;51.408;7.208;2023-07-29T08:22:50;21.90;61.50
4411;DHT22;2218;51.408;7.208;2023-07-29T08:25:17;22.00;61.60
4411;DHT22;2218;51.408;7.208;2023-07-29T08:27:44;21.90;61.50
4411;DHT22;2218;51.408;7.208;2023-07-29T08:30:11;21.90;61.50
4411;DHT22;2218;51.408;7.208;2023-07-29T08:32:40;21.90;61.40
4411;DHT22;2218;51.408;7.208;2023-07-29T08:35:07;21.90;61.40
4411;DHT22;2218;51.408;7.208;2023-07-29T08:37:34;22.00;61.50
4411;DHT22;2218;51.408;7.208;2023-07-29T08:40:01;22.00;61.50
4411;DHT22;2218;51.408;7.208;2023-07-29T08:42:31;22.00;61.30
4411;DHT22;2218;51.408;7.208;2023-07-29T08:45:07;22.00;61.30
4411;DHT22;2218;51.408;7.208;2023-07-29T08:47:34;22.00;61.30
4411;DHT22;2218;51.408;7.208;2023-07-29T08:50:03;22.00;61.30
4411;DHT22;2218;51.408;7.208;2023-07-29T08:52:32;22.00;61.30
4411;DHT22;2218;51.408;7.208;2023-07-29T08:55:01;22.00;61.30
4411;DHT22;2218;51.408;7.208;2023-07-29T08:57:28;22.00;61.30
4411;DHT22;2218;51.408;7.208;2023-07-29T08:59:56;22.00;61.20
4411;DHT22;2218;51.408;7.208;2023-07-29T09:02:25;22.00;61.20
4411;DHT22;2218;51.408;7.208;2023-07-29T09:04:52;22.00;61.10
4411;DHT22;2218;51.408;7.208;2023-07-29T09:07:20;22.00;61.10
4411;DHT22;2218;51.408;7.208;2023-07-29T09:09:47;22.00;61.10
4411;DHT22;2218;51.408;7.208;2023-07-29T09:12:14;22.00;61.10
4411;DHT22;2218;51.408;7.208;2023-07-29T09:14:41;22.00;61.10
4411;DHT22;2218;51.408;7.208;2023-07-29T09:17:10;22.00;61.10
4411;DHT22;2218;51.408;7.208;2023-07-29T09:19:37;22.00;61.10
4411;DHT22;2218;51.408;7.208;2023-07-29T09:22:04;22.00;61.10
4411;DHT22;2218;51.408;7.208;2023-07-29T09:24:33;22.00;61.10
4411;DHT22;2218;51.408;7.208;2023-07-29T09:27:00;22.00;61.00
4411;DHT22;2218;51.408;7.208;2023-07-29T09:29:28;22.10;61.20
4411;DHT22;2218;51.408;7.208;2023-07-29T09:32:17;22.10;61.10
4411;DHT22;2218;51.408;7.208;2023-07-29T09:34:46;22.10;61.10
4411;DHT22;2218;51.408;7.208;2023-07-29T09:37:17;22.10;61.10
4411;DHT22;2218;51.408;7.208;2023-07-29T09:39:46;22.00;61.00
4411;DHT22;2218;51.408;7.208;2023-07-29T09:42:17;22.10;61.00
4411;DHT22;2218;51.408;7.208;2023-07-29T09:44:46;22.10;61.00
4411;DHT22;2218;51.408;7.208;2023-07-29T09:47:20;22.10;61.10
4411;DHT22;2218;51.408;7.208;2023-07-29T09:49:48;22.10;61.00
4411;DHT22;2218;51.408;7.208;2023-07-29T09:52:16;22.10;61.00
4411;DHT22;2218;51.408;7.208;2023-07-29T09:54:43;22.10;61.00
4411;DHT22;2218;51.408;7.208;2023-07-29T09:57:13;22.10;61.00
4411;DHT22;2218;51.408;7.208;2023-07-29T09:59:42;22.10;61.00
4411;DHT22;2218;51.408;7.208;2023-07-29T10:02:13;22.10;61.00
4411;DHT22;2218;51.408;7.208;2023-07-29T10:04:42;22.10;61.00
4411;DHT22;2218;51.408;7.208;2023-07-29T10:07:12;22.10;61.00
4411;DHT22;2218;51.408;7.208;2023-07-29T10:09:41;22.10;61.00
4411;DHT22;2218;51.408;7.208;2023-07-29T10:12:11;22.10;61.00
4411;DHT22;2218;51.408;7.208;2023-07-29T10:14:38;22.10;61.00
4411;DHT22;2218;51.408;7.208;2023-07-29T10:17:05;22.10;61.00
4411;DHT22;2218;51.408;7.208;2023-07-29T10:19:34;22.10;61.70
4411;DHT22;2218;51.408;7.208;2023-07-29T10:22:04;22.10;60.90
4411;DHT22;2218;51.408;7.208;2023-07-29T10:24:33;22.10;60.90
4411;DHT22;2218;51.408;7.208;2023-07-29T10:27:01;22.10;60.90
4411;DHT22;2218;51.408;7.208;2023-07-29T10:29:31;22.10;60.90
4411;DHT22;2218;51.408;7.208;2023-07-29T10:32:01;22.10;60.90
4411;DHT22;2218;51.408;7.208;2023-07-29T10:34:30;22.10;60.90
4411;DHT22;2218;51.408;7.208;2023-07-29T10:36:59;22.10;60.90
4411;DHT22;2218;51.408;7.208;2023-07-29T10:39:26;22.10;60.90
4411;DHT22;2218;51.408;7.208;2023-07-29T10:41:58;22.10;60.90
4411;DHT22;2218;51.408;7.208;2023-07-29T10:44:52;22.10;60.80
4411;DHT22;2218;51.408;7.208;2023-07-29T10:47:22;22.20;60.90
4411;DHT22;2218;51.408;7.208;2023-07-29T10:49:52;22.10;60.80
4411;DHT22;2218;51.408;7.208;2023-07-29T10:52:37;22.10;60.80
4411;DHT22;2218;51.408;7.208;2023-07-29T10:55:23;22.10;60.80
4411;DHT22;2218;51.408;7.208;2023-07-29T10:57:51;22.10;60.70
4411;DHT22;2218;51.408;7.208;2023-07-29T11:00:20;22.10;60.70
4411;DHT22;2218;51.408;7.208;2023-07-29T11:02:59;22.10;60.70
4411;DHT22;2218;51.408;7.208;2023-07-29T11:05:46;22.10;60.70
4411;DHT22;2218;51.408;7.208;2023-07-29T11:08:27;22.10;60.70
4411;DHT22;2218;51.408;7.208;2023-07-29T11:11:04;22.20;60.80
4411;DHT22;2218;51.408;7.208;2023-07-29T11:13:34;22.10;60.70
4411;DHT22;2218;51.408;7.208;2023-07-29T11:16:03;22.20;60.80
4411;DHT22;2218;51.408;7.208;2023-07-29T11:18:32;22.20;60.80
4411;DHT22;2218;51.408;7.208;2023-07-29T11:21:01;22.20;60.70
4411;DHT22;2218;51.408;7.208;2023-07-29T11:23:30;22.20;60.70
4411;DHT22;2218;51.408;7.208;2023-07-29T11:26:00;22.20;60.70
4411;DHT22;2218;51.408;7.208;2023-07-29T11:28:28;22.20;60.70
4411;DHT22;2218;51.408;7.208;2023-07-29T11:30:56;22.20;60.70
4411;DHT22;2218;51.408;7.208;2023-07-29T11:33:26;22.20;60.60
4411;DHT22;2218;51.408;7.208;2023-07-29T11:35:54;22.20;60.50
4411;DHT22;2218;51.408;7.208;2023-07-29T11:38:22;22.20;60.50
4411;DHT22;2218;51.408;7.208;2023-07-29T11:40:58;22.20;60.40
4411;DHT22;2218;51.408;7.208;2023-07-29T11:43:28;22.20;60.40
4411;DHT22;2218;51.408;7.208;2023-07-29T11:45:55;22.20;60.40
4411;DHT22;2218;51.408;7.208;2023-07-29T11:48:32;22.20;60.40
4411;DHT22;2218;51.408;7.208;2023-07-29T11:51:00;22.20;60.30
4411;DHT22;2218;51.408;7.208;2023-07-29T11:53:29;22.20;60.30
4411;DHT22;2218;51.408;7.208;2023-07-29T11:55:57;22.20;60.40
4411;DHT22;2218;51.408;7.208;2023-07-29T11:58:24;22.20;60.40
4411;DHT22;2218;51.408;7.208;2023-07-29T12:00:52;22.20;60.30
4411;DHT22;2218;51.408;7.208;2023-07-29T12:03:19;22.20;60.30
4411;DHT22;2218;51.408;7.208;2023-07-29T12:05:48;22.20;60.30
4411;DHT22;2218;51.408;7.208;2023-07-29T12:08:15;22.20;60.20
4411;DHT22;2218;51.408;7.208;2023-07-29T12:10:42;22.20;60.20
4411;DHT22;2218;51.408;7.208;2023-07-29T12:13:10;22.20;60.20
4411;DHT22;2218;51.408;7.208;2023-07-29T12:15:38;22.20;60.20
4411;DHT22;2218;51.408;7.208;2023-07-29T12:18:06;22.20;60.20
4411;DHT22;2218;51.408;7.208;2023-07-29T12:20:33;22.20;60.20
4411;DHT22;2218;51.408;7.208;2023-07-29T12:23:01;22.20;60.20
4411;DHT22;2218;51.408;7.208;2023-07-29T12:25:31;22.20;60.20
4411;DHT22;2218;51.408;7.208;2023-07-29T12:28:03;22.20;60.20
4411;DHT22;2218;51.408;7.208;2023-07-29T12:30:30;22.20;60.20
4411;DHT22;2218;51.408;7.208;2023-07-29T12:32:57;22.20;60.20
4411;DHT22;2218;51.408;7.208;2023-07-29T12:35:25;22.20;60.20
4411;DHT22;2218;51.408;7.208;2023-07-29T12:38:02;22.20;60.20
4411;DHT22;2218;51.408;7.208;2023-07-29T12:40:29;22.20;60.20
4411;DHT22;2218;51.408;7.208;2023-07-29T12:42:57;22.30;60.30
4411;DHT22;2218;51.408;7.208;2023-07-29T12:45:24;22.30;60.30
4411;DHT22;2218;51.408;7.208;2023-07-29T12:47:52;22.30;60.20
4411;DHT22;2218;51.408;7.208;2023-07-29T12:50:19;22.30;60.30
4411;DHT22;2218;51.408;7.208;2023-07-29T12:52:46;22.30;60.20
4411;DHT22;2218;51.408;7.208;2023-07-29T12:55:14;22.30;60.30
4411;DHT22;2218;51.408;7.208;2023-07-29T12:57:41;22.30;60.30
4411;DHT22;2218;51.408;7.208;2023-07-29T13:00:10;22.30;60.20
4411;DHT22;2218;51.408;7.208;2023-07-29T13:02:38;22.30;60.20
4411;DHT22;2218;51.408;7.208;2023-07-29T13:05:08;22.30;60.20
4411;DHT22;2218;51.408;7.208;2023-07-29T13:07:36;22.30;60.10
4411;DHT22;2218;51.408;7.208;2023-07-29T13:10:03;22.30;60.20
4411;DHT22;2218;51.408;7.208;2023-07-29T13:12:32;22.30;60.20
4411;DHT22;2218;51.408;7.208;2023-07-29T13:14:59;22.30;60.20
4411;DHT22;2218;51.408;7.208;2023-07-29T13:17:27;22.30;60.10
4411;DHT22;2218;51.408;7.208;2023-07-29T13:19:54;22.30;60.10
4411;DHT22;2218;51.408;7.208;2023-07-29T13:22:21;22.30;60.10
4411;DHT22;2218;51.408;7.208;2023-07-29T13:24:48;22.30;60.10
4411;DHT22;2218;51.408;7.208;2023-07-29T13:27:15;22.30;60.10
4411;DHT22;2218;51.408;7.208;2023-07-29T13:29:43;22.30;60.20
4411;DHT22;2218;51.408;7.208;2023-07-29T13:32:11;22.30;60.20
4411;DHT22;2218;51.408;7.208;2023-07-29T13:34:38;22.30;60.10
4411;DHT22;2218;51.408;7.208;2023-07-29T13:37:06;22.30;60.10
4411;DHT22;2218;51.408;7.208;2023-07-29T13:39:32;22.30;60.10
4411;DHT22;2218;51.408;7.208;2023-07-29T13:41:59;22.30;60.00
4411;DHT22;2218;51.408;7.208;2023-07-29T13:44:26;22.30;60.10
4411;DHT22;2218;51.408;7.208;2023-07-29T13:46:55;22.30;60.10
4411;DHT22;2218;51.408;7.208;2023-07-29T13:49:20;22.30;60.00
4411;DHT22;2218;51.408;7.208;2023-07-29T13:51:47;22.30;60.00
4411;DHT22;2218;51.408;7.208;2023-07-29T13:54:14;22.30;60.00
4411;DHT22;2218;51.408;7.208;2023-07-29T13:56:41;22.30;60.00
4411;DHT22;2218;51.408;7.208;2023-07-29T13:59:08;22.30;60.10
4411;DHT22;2218;51.408;7.208;2023-07-29T14:01:35;22.30;60.10
4411;DHT22;2218;51.408;7.208;2023-07-29T14:04:03;22.30;60.00
4411;DHT22;2218;51.408;7.208;2023-07-29T14:06:30;22.30;60.00
4411;DHT22;2218;51.408;7.208;2023-07-29T14:08:57;22.30;60.00
4411;DHT22;2218;51.408;7.208;2023-07-29T14:11:24;22.30;60.00
4411;DHT22;2218;51.408;7.208;2023-07-29T14:13:51;22.30;60.00
4411;DHT22;2218;51.408;7.208;2023-07-29T14:16:18;22.30;59.90
4411;DHT22;2218;51.408;7.208;2023-07-29T14:18:45;22.30;59.90
4411;DHT22;2218;51.408;7.208;2023-07-29T14:21:13;22.30;59.90
4411;DHT22;2218;51.408;7.208;2023-07-29T14:23:40;22.30;59.80
4411;DHT22;2218;51.408;7.208;2023-07-29T14:26:07;22.30;60.00
4411;DHT22;2218;51.408;7.208;2023-07-29T14:28:35;22.30;60.20
4411;DHT22;2218;51.408;7.208;2023-07-29T14:31:02;22.30;60.20
4411;DHT22;2218;51.408;7.208;2023-07-29T14:33:29;22.30;60.20
4411;DHT22;2218;51.408;7.208;2023-07-29T14:35:56;22.30;60.10
4411;DHT22;2218;51.408;7.208;2023-07-29T14:38:24;22.30;60.10
4411;DHT22;2218;51.408;7.208;2023-07-29T14:40:52;22.30;60.30
4411;DHT22;2218;51.408;7.208;2023-07-29T14:43:20;22.30;60.30
4411;DHT22;2218;51.408;7.208;2023-07-29T14:45:48;22.30;60.30
4411;DHT22;2218;51.408;7.208;2023-07-29T14:48:14;22.30;60.40
4411;DHT22;2218;51.408;7.208;2023-07-29T14:50:41;22.30;60.40
4411;DHT22;2218;51.408;7.208;2023-07-29T14:53:09;22.30;60.40
4411;DHT22;2218;51.408;7.208;2023-07-29T14:55:38;22.30;60.50
4411;DHT22;2218;51.408;7.208;2023-07-29T14:58:05;22.30;60.40
4411;DHT22;2218;51.408;7.208;2023-07-29T15:00:32;22.30;60.40
4411;DHT22;2218;51.408;7.208;2023-07-29T15:02:59;22.30;60.40
4411;DHT22;2218;51.408;7.208;2023-07-29T15:05:26;22.30;60.40
4411;DHT22;2218;51.408;7.208;2023-07-29T15:07:53;22.30;60.40
4411;DHT22;2218;51.408;7.208;2023-07-29T15:10:20;22.30;60.50
4411;DHT22;2218;51.408;7.208;2023-07-29T15:12:48;22.30;60.50
4411;DHT22;2218;51.408;7.208;2023-07-29T15:15:15;22.30;60.60
4411;DHT22;2218;51.408;7.208;2023-07-29T15:17:42;22.30;60.50
4411;DHT22;2218;51.408;7.208;2023-07-29T15:20:10;22.30;60.50
4411;DHT22;2218;51.408;7.208;2023-07-29T15:22:38;22.30;60.50
4411;DHT22;2218;51.408;7.208;2023-07-29T15:25:05;22.30;60.50
4411;DHT22;2218;51.408;7.208;2023-07-29T15:27:35;22.30;60.40
4411;DHT22;2218;51.408;7.208;2023-07-29T15:30:04;22.30;60.40
4411;DHT22;2218;51.408;7.208;2023-07-29T15:32:32;22.30;60.50
4411;DHT22;2218;51.408;7.208;2023-07-29T15:34:59;22.30;60.40
4411;DHT22;2218;51.408;7.208;2023-07-29T15:37:26;22.30;60.50
4411;DHT22;2218;51.408;7.208;2023-07-29T15:39:53;22.30;60.50
4411;DHT22;2218;51.408;7.208;2023-07-29T15:42:20;22.30;60.50
4411;DHT22;2218;51.408;7.208;2023-07-29T15:44:47;22.30;60.40
4411;DHT22;2218;51.408;7.208;2023-07-29T15:47:15;22.30;60.50
4411;DHT22;2218;51.408;7.208;2023-07-29T15:49:44;22.30;60.50
4411;DHT22;2218;51.408;7.208;2023-07-29T15:52:11;22.30;60.50
4411;DHT22;2218;51.408;7.208;2023-07-29T15:54:40;22.30;61.20
4411;DHT22;2218;51.408;7.208;2023-07-29T15:57:07;22.30;60.50
4411;DHT22;2218;51.408;7.208;2023-07-29T15:59:34;22.30;60.60
4411;DHT22;2218;51.408;7.208;2023-07-29T16:02:02;22.30;60.50
4411;DHT22;2218;51.408;7.208;2023-07-29T16:04:30;22.30;60.60
4411;DHT22;2218;51.408;7.208;2023-07-29T16:06:57;22.30;60.50
4411;DHT22;2218;51.408;7.208;2023-07-29T16:09:24;22.30;60.50